»·PEaware :: AAL99W KPDX-KLAX

AAL99W :: KPDX-KLAX

FLIGHT INFORMATION

Flight Status: Arrived
Operator:
American Airlines
More flights by this operator :: More flights under this callsign
Pilot: Cassius J. (20284)
Aircraft: BOEING 737-800
(B738)
More flights by this aircraft type
Origin: KPDX Portland Intl
United States
Destination: KLAX Los Angeles Intl
United States
More flights between these airports :: More routes between these airports
Route: +CASCD2 JOGEN Q7 JAGWA DCT BURGL IRNMN2
File this flight plan on PilotEdge
Remarks:
Altitude:
(Current/Filed)
35,000ft
Speed:
(Current/Filed)
452kts
Departed: 24-Jan-20 01:30 PM
Arrived: 24-Jan-20 03:22 PM
Distance/Time
Traveled:
725nm/1:52
Distance/Time
To Go:
Arrived

Flight Plot

Page will automatically refresh every two minutes.

Flight plan parsing failed; only flown route is shown


Map Options




Map Legend


Flown Route
Filed Route
Departure Airport
Arrival Airport
Navaid (VOR, NDB)
Fix

Horizontal Profiles

Position Reports

Time Latitude Longitude Heading Altitude Ground
Speed
24-Jan-20 12:49 45.589425 -122.598931 42 40ft 0kts
24-Jan-20 12:50 45.589424 -122.598931 42 40ft 0kts
24-Jan-20 12:52 45.589424 -122.598931 42 40ft 0kts
24-Jan-20 12:52 45.589424 -122.598931 42 40ft 0kts
24-Jan-20 12:53 45.589424 -122.598931 42 40ft 0kts
24-Jan-20 12:55 45.589424 -122.598931 42 40ft 0kts
24-Jan-20 12:55 45.589424 -122.598931 42 40ft 0kts
24-Jan-20 12:56 45.589424 -122.598931 42 40ft 0kts
24-Jan-20 12:58 45.589424 -122.598931 42 40ft 0kts
24-Jan-20 12:58 45.589424 -122.598931 42 40ft 0kts
24-Jan-20 12:59 45.589424 -122.598931 42 40ft 0kts
24-Jan-20 13:00 45.589424 -122.598931 42 40ft 0kts
24-Jan-20 13:01 45.589424 -122.598931 42 40ft 0kts
24-Jan-20 13:02 45.589424 -122.598931 42 40ft 0kts
24-Jan-20 13:03 45.589424 -122.598931 42 40ft 0kts
24-Jan-20 13:04 45.589424 -122.598931 42 40ft 0kts
24-Jan-20 13:05 45.589424 -122.598931 42 40ft 0kts
24-Jan-20 13:06 45.589424 -122.598931 42 40ft 0kts
24-Jan-20 13:07 45.589424 -122.598931 42 40ft 0kts
24-Jan-20 13:08 45.589424 -122.598931 42 40ft 0kts
24-Jan-20 13:09 45.589425 -122.598931 42 40ft 0kts
24-Jan-20 13:10 45.589424 -122.598931 42 40ft 0kts
24-Jan-20 13:11 45.589424 -122.598931 42 40ft 0kts
24-Jan-20 13:12 45.589425 -122.598931 42 40ft 0kts
24-Jan-20 13:13 45.589424 -122.598931 42 40ft 0kts
24-Jan-20 13:14 45.589425 -122.598931 42 40ft 0kts
24-Jan-20 13:15 45.589424 -122.598931 42 40ft 0kts
24-Jan-20 13:16 45.589424 -122.598931 42 40ft 0kts
24-Jan-20 13:17 45.589424 -122.598932 42 40ft 0kts
24-Jan-20 13:18 45.589158 -122.599452 66 40ft 2kts
24-Jan-20 13:19 45.589075 -122.600289 98 40ft 2kts
24-Jan-20 13:20 45.589217 -122.600874 120 40ft 0kts
24-Jan-20 13:21 45.589217 -122.600874 120 40ft 0kts
24-Jan-20 13:22 45.589217 -122.600874 120 40ft 0kts
24-Jan-20 13:23 45.589217 -122.600874 120 40ft 0kts
24-Jan-20 13:24 45.588240 -122.598340 119 40ft 15kts
24-Jan-20 13:25 45.585914 -122.593119 129 40ft 13kts
24-Jan-20 13:26 45.583912 -122.589395 118 40ft 12kts
24-Jan-20 13:27 45.581878 -122.584205 119 40ft 8kts
24-Jan-20 13:28 45.581490 -122.583627 163 40ft 0kts
24-Jan-20 13:29 45.581360 -122.586116 298 40ft 55kts
24-Jan-20 13:30 45.601613 -122.635645 292 1345ft 179kts
24-Jan-20 13:31 45.631171 -122.707012 297 3478ft 244kts
24-Jan-20 13:32 45.663503 -122.795518 280 6766ft 258kts
24-Jan-20 13:34 45.646927 -122.906981 221 10306ft 259kts
24-Jan-20 13:34 45.584834 -122.911950 167 11505ft 320kts
24-Jan-20 13:35 45.510564 -122.844790 138 13782ft 355kts
24-Jan-20 13:36 45.445039 -122.742321 137 16402ft 374kts
24-Jan-20 13:37 45.373091 -122.630406 137 19012ft 393kts
24-Jan-20 13:38 45.297114 -122.512699 137 21398ft 412kts
24-Jan-20 13:39 45.217712 -122.390206 137 23565ft 430kts
24-Jan-20 13:40 45.139466 -122.269950 138 25405ft 446kts
24-Jan-20 13:41 45.048307 -122.147204 154 27144ft 450kts
24-Jan-20 13:42 44.935272 -122.064600 160 28632ft 464kts
24-Jan-20 13:43 44.818702 -121.984343 160 30136ft 477kts
24-Jan-20 13:44 44.698363 -121.901786 160 31717ft 485kts
24-Jan-20 13:45 44.577344 -121.819155 160 33493ft 484kts
24-Jan-20 13:46 44.456199 -121.736834 160 35039ft 486kts
24-Jan-20 13:47 44.331469 -121.656701 170 35118ft 489kts
24-Jan-20 13:48 44.201223 -121.621364 178 35117ft 477kts
24-Jan-20 13:49 44.070078 -121.591186 178 35118ft 479kts
24-Jan-20 13:50 43.938476 -121.560856 178 35118ft 479kts
24-Jan-20 13:51 43.809644 -121.531412 178 35115ft 477kts
24-Jan-20 13:52 43.678322 -121.501401 178 35114ft 478kts
24-Jan-20 13:53 43.546987 -121.471533 178 35118ft 480kts
24-Jan-20 13:54 43.415670 -121.441890 178 35117ft 478kts
24-Jan-20 13:55 43.284704 -121.412307 178 35118ft 478kts
24-Jan-20 13:56 43.153663 -121.382922 178 35132ft 478kts
24-Jan-20 13:57 43.022885 -121.353762 178 35194ft 477kts
24-Jan-20 13:58 42.891812 -121.324573 178 35184ft 478kts
24-Jan-20 13:59 42.761010 -121.295629 178 35177ft 479kts
24-Jan-20 14:00 42.629865 -121.266733 178 35179ft 479kts
24-Jan-20 14:01 42.498034 -121.237802 178 35180ft 479kts
24-Jan-20 14:02 42.367192 -121.209207 178 35172ft 476kts
24-Jan-20 14:03 42.236132 -121.180719 178 35174ft 479kts
24-Jan-20 14:04 42.105009 -121.152303 177 35176ft 481kts
24-Jan-20 14:05 41.974564 -121.124157 178 35180ft 481kts
24-Jan-20 14:06 41.842602 -121.095814 177 35177ft 484kts
24-Jan-20 14:07 41.709844 -121.067405 177 35182ft 486kts
24-Jan-20 14:08 41.575639 -121.038841 177 35191ft 487kts
24-Jan-20 14:09 41.439934 -121.009998 177 35192ft 489kts
24-Jan-20 14:10 41.302613 -120.981008 177 35192ft 491kts
24-Jan-20 14:11 41.165124 -120.952106 177 35196ft 494kts
24-Jan-20 14:12 41.027611 -120.923271 176 35196ft 491kts
24-Jan-20 14:13 40.895564 -120.909781 182 35195ft 482kts
24-Jan-20 14:14 40.761494 -120.899088 182 35181ft 484kts
24-Jan-20 14:15 40.627591 -120.888411 182 35183ft 484kts
24-Jan-20 14:16 40.493785 -120.877787 182 35184ft 483kts
24-Jan-20 14:17 40.359576 -120.867175 182 35185ft 484kts
24-Jan-20 14:18 40.225982 -120.856648 182 35186ft 484kts
24-Jan-20 14:19 40.091654 -120.846112 182 35188ft 484kts
24-Jan-20 14:20 39.957242 -120.835605 182 35191ft 483kts
24-Jan-20 14:21 39.823476 -120.825195 182 35194ft 484kts
24-Jan-20 14:22 39.689855 -120.814835 182 35221ft 483kts
24-Jan-20 14:23 39.555853 -120.804487 182 35229ft 484kts
24-Jan-20 14:24 39.421982 -120.794185 182 35232ft 484kts
24-Jan-20 14:25 39.288063 -120.783920 182 35234ft 483kts
24-Jan-20 14:26 39.153884 -120.773677 182 35237ft 484kts
24-Jan-20 14:27 39.020104 -120.763500 182 35237ft 483kts
24-Jan-20 14:28 38.887898 -120.753481 180 35218ft 482kts
24-Jan-20 14:29 38.754300 -120.743421 180 35209ft 481kts
24-Jan-20 14:30 38.621348 -120.733395 180 35212ft 482kts
24-Jan-20 14:31 38.487455 -120.723357 180 35203ft 482kts
24-Jan-20 14:32 38.354080 -120.713430 180 35197ft 482kts
24-Jan-20 14:33 38.220526 -120.703488 180 35186ft 482kts
24-Jan-20 14:34 38.087252 -120.693615 180 35188ft 483kts
24-Jan-20 14:35 37.953156 -120.683709 180 35187ft 482kts
24-Jan-20 14:36 37.819811 -120.673882 180 35186ft 482kts
24-Jan-20 14:37 37.686454 -120.664137 180 35188ft 482kts
24-Jan-20 14:38 37.553197 -120.654394 180 35196ft 483kts
24-Jan-20 14:39 37.419296 -120.644666 180 35193ft 481kts
24-Jan-20 14:40 37.286778 -120.624544 168 35201ft 489kts
24-Jan-20 14:41 37.155815 -120.581570 168 35197ft 487kts
24-Jan-20 14:42 37.024465 -120.539001 167 35201ft 490kts
24-Jan-20 14:43 36.893022 -120.496558 167 35203ft 488kts
24-Jan-20 14:44 36.761865 -120.454389 167 35212ft 487kts
24-Jan-20 14:45 36.630916 -120.412400 167 35210ft 489kts
24-Jan-20 14:46 36.499360 -120.370387 166 35215ft 490kts
24-Jan-20 14:47 36.368975 -120.328827 167 35210ft 485kts
24-Jan-20 14:49 36.238309 -120.287362 167 35209ft 489kts
24-Jan-20 14:50 36.106693 -120.245757 167 35211ft 489kts
24-Jan-20 14:51 35.975104 -120.204288 167 35214ft 489kts
24-Jan-20 14:52 35.844035 -120.163115 167 35190ft 487kts
24-Jan-20 14:53 35.712562 -120.121958 167 35183ft 489kts
24-Jan-20 14:54 35.589971 -120.050497 148 35182ft 490kts
24-Jan-20 14:55 35.473969 -119.962926 148 35176ft 492kts
24-Jan-20 14:56 35.356999 -119.875110 148 34876ft 496kts
24-Jan-20 14:57 35.242894 -119.781585 141 33906ft 494kts
24-Jan-20 14:58 35.133406 -119.678917 142 32938ft 495kts
24-Jan-20 14:59 35.023743 -119.576832 141 31975ft 496kts
24-Jan-20 15:00 34.913049 -119.474116 141 29417ft 507kts
24-Jan-20 15:01 34.804246 -119.376945 141 28360ft 477kts
24-Jan-20 15:02 34.698586 -119.283382 143 25278ft 461kts
24-Jan-20 15:03 34.599708 -119.197651 143 23880ft 432kts
24-Jan-20 15:04 34.502894 -119.112852 143 21159ft 431kts
24-Jan-20 15:05 34.409765 -119.030894 144 18644ft 397kts
24-Jan-20 15:05 34.335395 -118.966551 143 16609ft 394kts
24-Jan-20 15:07 34.238427 -118.878227 142 13881ft 352kts
24-Jan-20 15:08 34.165557 -118.811070 140 12799ft 314kts
24-Jan-20 15:08 34.111244 -118.752279 137 11434ft 317kts
24-Jan-20 15:09 34.047798 -118.679453 125 9973ft 309kts
24-Jan-20 15:11 34.020562 -118.569438 94 8217ft 280kts
24-Jan-20 15:11 34.013865 -118.496234 94 7602ft 246kts
24-Jan-20 15:12 34.017183 -118.416288 79 6306ft 242kts
24-Jan-20 15:14 34.030508 -118.328019 84 5987ft 243kts
24-Jan-20 15:14 34.037019 -118.261969 83 5994ft 243kts
24-Jan-20 15:15 34.044422 -118.183900 93 5994ft 244kts
24-Jan-20 15:16 34.001798 -118.138926 192 4792ft 222kts
24-Jan-20 15:17 33.969855 -118.192091 261 4005ft 216kts
24-Jan-20 15:18 33.961801 -118.262710 262 3995ft 215kts
24-Jan-20 15:19 33.958721 -118.331411 266 2851ft 187kts
24-Jan-20 15:20 33.953770 -118.386382 263 787ft 159kts
24-Jan-20 15:22 33.949981 -118.422036 266 121ft 12kts
24-Jan-20 15:22 33.948584 -118.426650 229 116ft 4kts
24-Jan-20 15:23 33.946437 -118.427469 118 112ft 10kts
24-Jan-20 15:24 33.946524 -118.425303 83 115ft 7kts
24-Jan-20 15:25 33.946867 -118.421851 82 119ft 18kts
24-Jan-20 15:26 33.947549 -118.415214 83 123ft 24kts
24-Jan-20 15:27 33.948379 -118.408547 82 125ft 22kts
24-Jan-20 15:28 33.948054 -118.405955 170 122ft 5kts
24-Jan-20 15:29 33.946928 -118.405593 120 122ft 2kts
24-Jan-20 15:30 33.946648 -118.404973 117 122ft 2kts
24-Jan-20 15:31 33.946592 -118.404843 117 122ft 0kts
24-Jan-20 15:32 33.946592 -118.404843 117 122ft 0kts
24-Jan-20 15:33 33.946592 -118.404843 117 122ft 0kts
24-Jan-20 15:34 33.946592 -118.404843 117 122ft 0kts
24-Jan-20 15:35 33.946592 -118.404843 117 122ft 0kts
24-Jan-20 15:36 33.946592 -118.404843 117 122ft 0kts

Navigation Log

Ident Type
Flight plan parsing failed, navigation log unavailable